sensor_id;sensor_type;location;lat;lon;timestamp;P1;durP1;ratioP1;P2;durP2;ratioP2
74469;SDS011;62918;55.706;37.816;2022-12-07T00:00:15;7.72;;;3.50;;
74469;SDS011;62918;55.706;37.816;2022-12-07T00:00:46;9.55;;;3.05;;
74469;SDS011;62918;55.706;37.816;2022-12-07T00:01:21;5.13;;;2.50;;
74469;SDS011;62918;55.706;37.816;2022-12-07T00:01:53;7.05;;;3.15;;
74469;SDS011;62918;55.706;37.816;2022-12-07T00:02:24;7.75;;;3.03;;
74469;SDS011;62918;55.706;37.816;2022-12-07T00:02:54;8.77;;;2.83;;
74469;SDS011;62918;55.706;37.816;2022-12-07T00:03:25;7.20;;;2.92;;
74469;SDS011;62918;55.706;37.816;2022-12-07T00:03:56;6.13;;;2.85;;
74469;SDS011;62918;55.706;37.816;2022-12-07T00:04:33;7.75;;;3.10;;
74469;SDS011;62918;55.706;37.816;2022-12-07T00:05:04;6.68;;;3.00;;
74469;SDS011;62918;55.706;37.816;2022-12-07T00:05:35;7.05;;;3.08;;
74469;SDS011;62918;55.706;37.816;2022-12-07T00:06:06;6.65;;;3.08;;
74469;SDS011;62918;55.706;37.816;2022-12-07T00:06:38;7.30;;;3.22;;
74469;SDS011;62918;55.706;37.816;2022-12-07T00:07:13;8.80;;;3.03;;
74469;SDS011;62918;55.706;37.816;2022-12-07T00:07:43;6.63;;;3.55;;
74469;SDS011;62918;55.706;37.816;2022-12-07T00:08:14;6.28;;;2.85;;
74469;SDS011;62918;55.706;37.816;2022-12-07T00:08:45;8.90;;;4.00;;
74469;SDS011;62918;55.706;37.816;2022-12-07T00:09:16;8.55;;;3.20;;
74469;SDS011;62918;55.706;37.816;2022-12-07T00:09:47;8.05;;;3.63;;
74469;SDS011;62918;55.706;37.816;2022-12-07T00:10:17;7.20;;;3.15;;
74469;SDS011;62918;55.706;37.816;2022-12-07T00:10:48;8.32;;;3.10;;
74469;SDS011;62918;55.706;37.816;2022-12-07T00:11:19;6.05;;;2.67;;
74469;SDS011;62918;55.706;37.816;2022-12-07T00:11:52;6.78;;;3.03;;
74469;SDS011;62918;55.706;37.816;2022-12-07T00:12:22;7.47;;;2.88;;
74469;SDS011;62918;55.706;37.816;2022-12-07T00:12:52;6.88;;;3.05;;
74469;SDS011;62918;55.706;37.816;2022-12-07T00:13:23;6.88;;;2.95;;
74469;SDS011;62918;55.706;37.816;2022-12-07T00:13:54;7.10;;;2.92;;
74469;SDS011;62918;55.706;37.816;2022-12-07T00:14:26;7.82;;;2.97;;
74469;SDS011;62918;55.706;37.816;2022-12-07T00:14:57;7.93;;;3.28;;
74469;SDS011;62918;55.706;37.816;2022-12-07T00:15:27;7.78;;;3.08;;
74469;SDS011;62918;55.706;37.816;2022-12-07T00:16:05;5.03;;;2.47;;
74469;SDS011;62918;55.706;37.816;2022-12-07T00:16:37;7.80;;;3.13;;
74469;SDS011;62918;55.706;37.816;2022-12-07T00:17:08;7.13;;;2.97;;
74469;SDS011;62918;55.706;37.816;2022-12-07T00:17:38;5.85;;;3.15;;
74469;SDS011;62918;55.706;37.816;2022-12-07T00:18:09;8.80;;;3.38;;
74469;SDS011;62918;55.706;37.816;2022-12-07T00:18:40;9.70;;;3.03;;
74469;SDS011;62918;55.706;37.816;2022-12-07T00:19:11;6.60;;;2.95;;
74469;SDS011;62918;55.706;37.816;2022-12-07T00:19:43;7.90;;;3.55;;
74469;SDS011;62918;55.706;37.816;2022-12-07T00:20:13;6.68;;;3.13;;
74469;SDS011;62918;55.706;37.816;2022-12-07T00:20:44;7.53;;;3.05;;
74469;SDS011;62918;55.706;37.816;2022-12-07T00:21:19;8.80;;;2.83;;
74469;SDS011;62918;55.706;37.816;2022-12-07T00:21:51;10.35;;;3.70;;
74469;SDS011;62918;55.706;37.816;2022-12-07T00:22:22;7.95;;;3.10;;
74469;SDS011;62918;55.706;37.816;2022-12-07T00:22:52;5.93;;;2.60;;
74469;SDS011;62918;55.706;37.816;2022-12-07T00:23:23;6.85;;;2.75;;
74469;SDS011;62918;55.706;37.816;2022-12-07T00:23:54;6.82;;;3.50;;
74469;SDS011;62918;55.706;37.816;2022-12-07T00:24:26;7.00;;;3.50;;
74469;SDS011;62918;55.706;37.816;2022-12-07T00:24:56;9.13;;;3.00;;
74469;SDS011;62918;55.706;37.816;2022-12-07T00:25:27;7.70;;;3.20;;
74469;SDS011;62918;55.706;37.816;2022-12-07T00:26:03;6.25;;;3.10;;
74469;SDS011;62918;55.706;37.816;2022-12-07T00:26:37;6.70;;;2.92;;
74469;SDS011;62918;55.706;37.816;2022-12-07T00:27:09;8.65;;;3.63;;
74469;SDS011;62918;55.706;37.816;2022-12-07T00:27:40;8.00;;;3.22;;
74469;SDS011;62918;55.706;37.816;2022-12-07T00:28:10;9.23;;;2.97;;
74469;SDS011;62918;55.706;37.816;2022-12-07T00:28:41;7.47;;;3.10;;
74469;SDS011;62918;55.706;37.816;2022-12-07T00:29:16;7.68;;;3.50;;
74469;SDS011;62918;55.706;37.816;2022-12-07T00:29:48;7.30;;;3.17;;
74469;SDS011;62918;55.706;37.816;2022-12-07T00:30:19;7.47;;;3.38;;
74469;SDS011;62918;55.706;37.816;2022-12-07T00:30:49;8.98;;;3.65;;
74469;SDS011;62918;55.706;37.816;2022-12-07T00:31:21;6.35;;;2.88;;
74469;SDS011;62918;55.706;37.816;2022-12-07T00:31:52;7.25;;;2.97;;
74469;SDS011;62918;55.706;37.816;2022-12-07T00:32:23;6.65;;;3.13;;
74469;SDS011;62918;55.706;37.816;2022-12-07T00:32:54;8.10;;;4.40;;
74469;SDS011;62918;55.706;37.816;2022-12-07T00:33:24;9.57;;;3.38;;
74469;SDS011;62918;55.706;37.816;2022-12-07T00:33:55;11.43;;;3.15;;
74469;SDS011;62918;55.706;37.816;2022-12-07T00:34:25;10.38;;;3.50;;
74469;SDS011;62918;55.706;37.816;2022-12-07T00:34:56;6.13;;;2.92;;
74469;SDS011;62918;55.706;37.816;2022-12-07T00:35:26;7.07;;;3.30;;
74469;SDS011;62918;55.706;37.816;2022-12-07T00:35:58;12.57;;;3.33;;
74469;SDS011;62918;55.706;37.816;2022-12-07T00:36:28;9.82;;;3.33;;
74469;SDS011;62918;55.706;37.816;2022-12-07T00:36:59;7.80;;;2.97;;
74469;SDS011;62918;55.706;37.816;2022-12-07T00:37:29;8.65;;;3.00;;
74469;SDS011;62918;55.706;37.816;2022-12-07T00:38:00;9.38;;;3.83;;
74469;SDS011;62918;55.706;37.816;2022-12-07T00:38:31;7.70;;;4.20;;
74469;SDS011;62918;55.706;37.816;2022-12-07T00:39:03;8.00;;;3.20;;
74469;SDS011;62918;55.706;37.816;2022-12-07T00:39:33;7.65;;;2.92;;
74469;SDS011;62918;55.706;37.816;2022-12-07T00:40:04;6.40;;;3.03;;
74469;SDS011;62918;55.706;37.816;2022-12-07T00:40:36;8.95;;;3.42;;
74469;SDS011;62918;55.706;37.816;2022-12-07T00:41:13;8.23;;;4.22;;
74469;SDS011;62918;55.706;37.816;2022-12-07T00:41:46;9.68;;;3.35;;
74469;SDS011;62918;55.706;37.816;2022-12-07T00:42:16;6.63;;;3.50;;
74469;SDS011;62918;55.706;37.816;2022-12-07T00:42:47;7.80;;;3.30;;
74469;SDS011;62918;55.706;37.816;2022-12-07T00:43:17;6.20;;;3.47;;
74469;SDS011;62918;55.706;37.816;2022-12-07T00:43:48;11.23;;;3.42;;
74469;SDS011;62918;55.706;37.816;2022-12-07T00:44:20;8.38;;;3.58;;
74469;SDS011;62918;55.706;37.816;2022-12-07T00:44:50;9.63;;;3.45;;
74469;SDS011;62918;55.706;37.816;2022-12-07T00:45:21;8.45;;;3.70;;
74469;SDS011;62918;55.706;37.816;2022-12-07T00:45:52;7.30;;;3.38;;
74469;SDS011;62918;55.706;37.816;2022-12-07T00:46:23;7.15;;;3.45;;
74469;SDS011;62918;55.706;37.816;2022-12-07T00:46:54;7.78;;;3.72;;
74469;SDS011;62918;55.706;37.816;2022-12-07T00:47:25;8.43;;;3.50;;
74469;SDS011;62918;55.706;37.816;2022-12-07T00:47:56;8.00;;;3.20;;
74469;SDS011;62918;55.706;37.816;2022-12-07T00:48:26;10.10;;;3.38;;
74469;SDS011;62918;55.706;37.816;2022-12-07T00:48:57;8.65;;;3.90;;
74469;SDS011;62918;55.706;37.816;2022-12-07T00:49:27;8.48;;;3.22;;
74469;SDS011;62918;55.706;37.816;2022-12-07T00:49:58;7.18;;;3.65;;
74469;SDS011;62918;55.706;37.816;2022-12-07T00:50:30;7.78;;;3.40;;
74469;SDS011;62918;55.706;37.816;2022-12-07T00:51:00;8.38;;;3.63;;
74469;SDS011;62918;55.706;37.816;2022-12-07T00:51:31;9.70;;;3.13;;
74469;SDS011;62918;55.706;37.816;2022-12-07T00:52:02;9.80;;;4.85;;
74469;SDS011;62918;55.706;37.816;2022-12-07T00:52:32;7.40;;;3.65;;
74469;SDS011;62918;55.706;37.816;2022-12-07T00:53:03;10.32;;;3.53;;
74469;SDS011;62918;55.706;37.816;2022-12-07T00:53:34;8.80;;;3.83;;
74469;SDS011;62918;55.706;37.816;2022-12-07T00:54:05;9.38;;;3.60;;
74469;SDS011;62918;55.706;37.816;2022-12-07T00:54:36;9.40;;;3.95;;
74469;SDS011;62918;55.706;37.816;2022-12-07T00:55:07;7.93;;;3.40;;
74469;SDS011;62918;55.706;37.816;2022-12-07T00:55:37;8.32;;;3.35;;
74469;SDS011;62918;55.706;37.816;2022-12-07T00:56:09;9.43;;;3.83;;
74469;SDS011;62918;55.706;37.816;2022-12-07T00:56:44;8.80;;;3.85;;
74469;SDS011;62918;55.706;37.816;2022-12-07T00:57:14;7.80;;;3.65;;
74469;SDS011;62918;55.706;37.816;2022-12-07T00:57:45;8.88;;;3.85;;
74469;SDS011;62918;55.706;37.816;2022-12-07T00:58:15;11.88;;;3.67;;
74469;SDS011;62918;55.706;37.816;2022-12-07T00:58:50;7.78;;;3.65;;
74469;SDS011;62918;55.706;37.816;2022-12-07T00:59:22;10.05;;;3.47;;
74469;SDS011;62918;55.706;37.816;2022-12-07T00:59:52;8.07;;;3.75;;
74469;SDS011;62918;55.706;37.816;2022-12-07T01:00:27;8.50;;;3.15;;
74469;SDS011;62918;55.706;37.816;2022-12-07T01:01:01;8.65;;;3.83;;
74469;SDS011;62918;55.706;37.816;2022-12-07T01:01:34;7.82;;;3.38;;
74469;SDS011;62918;55.706;37.816;2022-12-07T01:02:06;8.57;;;4.07;;
74469;SDS011;62918;55.706;37.816;2022-12-07T01:02:37;8.65;;;3.60;;
74469;SDS011;62918;55.706;37.816;2022-12-07T01:03:09;9.02;;;3.80;;
74469;SDS011;62918;55.706;37.816;2022-12-07T01:03:42;8.35;;;3.70;;
74469;SDS011;62918;55.706;37.816;2022-12-07T01:04:12;9.77;;;3.42;;
74469;SDS011;62918;55.706;37.816;2022-12-07T01:04:42;8.60;;;3.75;;
74469;SDS011;62918;55.706;37.816;2022-12-07T01:05:13;11.38;;;4.20;;
74469;SDS011;62918;55.706;37.816;2022-12-07T01:05:53;7.50;;;3.58;;
74469;SDS011;62918;55.706;37.816;2022-12-07T01:06:25;8.82;;;3.78;;
74469;SDS011;62918;55.706;37.816;2022-12-07T01:06:55;7.45;;;3.58;;
74469;SDS011;62918;55.706;37.816;2022-12-07T01:07:26;10.75;;;4.47;;
74469;SDS011;62918;55.706;37.816;2022-12-07T01:07:56;9.07;;;4.15;;
74469;SDS011;62918;55.706;37.816;2022-12-07T01:08:27;9.32;;;3.90;;
74469;SDS011;62918;55.706;37.816;2022-12-07T01:08:58;9.57;;;3.70;;
74469;SDS011;62918;55.706;37.816;2022-12-07T01:09:29;9.52;;;4.15;;
74469;SDS011;62918;55.706;37.816;2022-12-07T01:10:00;8.15;;;3.78;;
74469;SDS011;62918;55.706;37.816;2022-12-07T01:10:30;9.23;;;4.20;;
74469;SDS011;62918;55.706;37.816;2022-12-07T01:11:05;13.27;;;4.20;;
74469;SDS011;62918;55.706;37.816;2022-12-07T01:11:38;10.00;;;4.28;;
74469;SDS011;62918;55.706;37.816;2022-12-07T01:12:08;9.50;;;4.20;;
74469;SDS011;62918;55.706;37.816;2022-12-07T01:12:39;9.70;;;4.07;;
74469;SDS011;62918;55.706;37.816;2022-12-07T01:13:10;9.48;;;4.30;;
74469;SDS011;62918;55.706;37.816;2022-12-07T01:13:41;9.27;;;3.97;;
74469;SDS011;62918;55.706;37.816;2022-12-07T01:14:12;9.07;;;4.00;;
74469;SDS011;62918;55.706;37.816;2022-12-07T01:14:43;11.13;;;3.78;;
74469;SDS011;62918;55.706;37.816;2022-12-07T01:15:13;11.32;;;4.10;;
74469;SDS011;62918;55.706;37.816;2022-12-07T01:15:44;8.50;;;3.90;;
74469;SDS011;62918;55.706;37.816;2022-12-07T01:16:15;9.63;;;3.92;;
74469;SDS011;62918;55.706;37.816;2022-12-07T01:16:46;10.15;;;3.65;;
74469;SDS011;62918;55.706;37.816;2022-12-07T01:17:17;10.55;;;3.88;;
74469;SDS011;62918;55.706;37.816;2022-12-07T01:17:47;9.05;;;4.20;;
74469;SDS011;62918;55.706;37.816;2022-12-07T01:18:18;8.90;;;3.92;;
74469;SDS011;62918;55.706;37.816;2022-12-07T01:18:49;9.27;;;3.88;;
74469;SDS011;62918;55.706;37.816;2022-12-07T01:19:21;8.40;;;4.07;;
74469;SDS011;62918;55.706;37.816;2022-12-07T01:19:51;8.57;;;3.70;;
74469;SDS011;62918;55.706;37.816;2022-12-07T01:20:22;10.60;;;4.30;;
74469;SDS011;62918;55.706;37.816;2022-12-07T01:21:37;9.68;;;3.58;;
74469;SDS011;62918;55.706;37.816;2022-12-07T01:22:08;9.52;;;4.55;;
74469;SDS011;62918;55.706;37.816;2022-12-07T01:22:40;8.63;;;3.75;;
74469;SDS011;62918;55.706;37.816;2022-12-07T01:23:11;9.50;;;4.45;;
74469;SDS011;62918;55.706;37.816;2022-12-07T01:23:41;9.90;;;3.97;;
74469;SDS011;62918;55.706;37.816;2022-12-07T01:24:13;9.38;;;4.28;;
74469;SDS011;62918;55.706;37.816;2022-12-07T01:24:43;9.18;;;4.40;;
74469;SDS011;62918;55.706;37.816;2022-12-07T01:25:14;8.93;;;3.65;;
74469;SDS011;62918;55.706;37.816;2022-12-07T01:25:44;9.20;;;3.67;;
74469;SDS011;62918;55.706;37.816;2022-12-07T01:26:16;10.32;;;3.53;;
74469;SDS011;62918;55.706;37.816;2022-12-07T01:26:49;8.88;;;3.88;;
74469;SDS011;62918;55.706;37.816;2022-12-07T01:27:20;8.75;;;3.55;;
74469;SDS011;62918;55.706;37.816;2022-12-07T01:27:51;10.07;;;3.60;;
74469;SDS011;62918;55.706;37.816;2022-12-07T01:28:22;9.38;;;4.25;;
74469;SDS011;62918;55.706;37.816;2022-12-07T01:28:53;9.82;;;3.92;;
74469;SDS011;62918;55.706;37.816;2022-12-07T01:29:25;8.27;;;3.95;;
74469;SDS011;62918;55.706;37.816;2022-12-07T01:29:55;10.27;;;4.22;;
74469;SDS011;62918;55.706;37.816;2022-12-07T01:30:26;9.15;;;3.75;;
74469;SDS011;62918;55.706;37.816;2022-12-07T01:31:00;8.15;;;3.95;;
74469;SDS011;62918;55.706;37.816;2022-12-07T01:31:32;8.50;;;3.75;;
74469;SDS011;62918;55.706;37.816;2022-12-07T01:32:03;8.13;;;3.33;;
74469;SDS011;62918;55.706;37.816;2022-12-07T01:32:33;8.05;;;3.63;;
74469;SDS011;62918;55.706;37.816;2022-12-07T01:33:04;8.13;;;3.63;;
74469;SDS011;62918;55.706;37.816;2022-12-07T01:33:35;8.20;;;3.28;;
74469;SDS011;62918;55.706;37.816;2022-12-07T01:34:06;7.80;;;3.60;;
74469;SDS011;62918;55.706;37.816;2022-12-07T01:34:37;10.50;;;3.88;;
74469;SDS011;62918;55.706;37.816;2022-12-07T01:35:07;8.38;;;4.25;;
74469;SDS011;62918;55.706;37.816;2022-12-07T01:35:38;7.70;;;3.42;;
74469;SDS011;62918;55.706;37.816;2022-12-07T01:36:47;8.52;;;3.22;;
74469;SDS011;62918;55.706;37.816;2022-12-07T01:37:17;8.35;;;3.53;;
74469;SDS011;62918;55.706;37.816;2022-12-07T01:37:48;7.18;;;3.90;;
74469;SDS011;62918;55.706;37.816;2022-12-07T01:38:18;8.23;;;3.55;;
74469;SDS011;62918;55.706;37.816;2022-12-07T01:38:50;9.05;;;3.45;;
74469;SDS011;62918;55.706;37.816;2022-12-07T01:39:26;8.15;;;3.33;;
74469;SDS011;62918;55.706;37.816;2022-12-07T01:39:57;7.30;;;3.30;;
74469;SDS011;62918;55.706;37.816;2022-12-07T01:40:27;7.60;;;3.42;;
74469;SDS011;62918;55.706;37.816;2022-12-07T01:40:58;6.60;;;3.25;;
74469;SDS011;62918;55.706;37.816;2022-12-07T01:41:31;8.95;;;3.42;;
74469;SDS011;62918;55.706;37.816;2022-12-07T01:42:03;6.60;;;3.22;;
74469;SDS011;62918;55.706;37.816;2022-12-07T01:42:34;6.55;;;3.00;;
74469;SDS011;62918;55.706;37.816;2022-12-07T01:43:12;6.97;;;3.50;;
74469;SDS011;62918;55.706;37.816;2022-12-07T01:46:00;8.73;;;2.80;;
74469;SDS011;62918;55.706;37.816;2022-12-07T01:46:31;6.38;;;2.90;;
74469;SDS011;62918;55.706;37.816;2022-12-07T01:47:03;6.45;;;3.15;;
74469;SDS011;62918;55.706;37.816;2022-12-07T01:47:34;7.72;;;3.25;;
74469;SDS011;62918;55.706;37.816;2022-12-07T01:48:05;9.48;;;3.55;;
74469;SDS011;62918;55.706;37.816;2022-12-07T01:48:39;7.35;;;3.42;;
74469;SDS011;62918;55.706;37.816;2022-12-07T01:49:14;7.93;;;3.72;;
74469;SDS011;62918;55.706;37.816;2022-12-07T01:49:49;7.63;;;3.13;;
74469;SDS011;62918;55.706;37.816;2022-12-07T01:50:19;8.65;;;2.83;;
74469;SDS011;62918;55.706;37.816;2022-12-07T01:50:51;7.30;;;3.80;;
74469;SDS011;62918;55.706;37.816;2022-12-07T01:51:25;7.32;;;3.30;;
74469;SDS011;62918;55.706;37.816;2022-12-07T01:52:02;8.40;;;4.13;;
74469;SDS011;62918;55.706;37.816;2022-12-07T01:52:45;9.55;;;3.13;;
74469;SDS011;62918;55.706;37.816;2022-12-07T01:53:19;8.30;;;3.20;;
74469;SDS011;62918;55.706;37.816;2022-12-07T01:53:51;8.85;;;3.28;;
74469;SDS011;62918;55.706;37.816;2022-12-07T01:54:22;7.70;;;3.22;;
74469;SDS011;62918;55.706;37.816;2022-12-07T01:54:57;7.82;;;3.30;;
74469;SDS011;62918;55.706;37.816;2022-12-07T01:55:34;8.20;;;2.80;;
74469;SDS011;62918;55.706;37.816;2022-12-07T01:56:08;6.90;;;3.05;;
74469;SDS011;62918;55.706;37.816;2022-12-07T01:56:47;8.35;;;2.80;;
74469;SDS011;62918;55.706;37.816;2022-12-07T01:57:24;7.03;;;2.95;;
74469;SDS011;62918;55.706;37.816;2022-12-07T01:57:55;7.30;;;3.13;;
74469;SDS011;62918;55.706;37.816;2022-12-07T01:58:26;6.85;;;3.10;;
74469;SDS011;62918;55.706;37.816;2022-12-07T01:58:58;7.72;;;3.00;;
74469;SDS011;62918;55.706;37.816;2022-12-07T01:59:30;7.95;;;3.25;;
74469;SDS011;62918;55.706;37.816;2022-12-07T02:00:01;9.82;;;4.10;;
74469;SDS011;62918;55.706;37.816;2022-12-07T02:00:32;7.25;;;2.92;;
74469;SDS011;62918;55.706;37.816;2022-12-07T02:01:03;7.65;;;3.15;;
74469;SDS011;62918;55.706;37.816;2022-12-07T02:01:34;7.50;;;3.55;;
74469;SDS011;62918;55.706;37.816;2022-12-07T02:02:05;7.53;;;3.03;;
74469;SDS011;62918;55.706;37.816;2022-12-07T02:02:48;6.13;;;3.25;;
74469;SDS011;62918;55.706;37.816;2022-12-07T02:03:29;8.35;;;3.00;;
74469;SDS011;62918;55.706;37.816;2022-12-07T02:04:05;6.95;;;3.13;;
74469;SDS011;62918;55.706;37.816;2022-12-07T02:04:36;6.30;;;3.20;;
74469;SDS011;62918;55.706;37.816;2022-12-07T02:05:07;8.20;;;3.15;;
74469;SDS011;62918;55.706;37.816;2022-12-07T02:05:38;9.07;;;3.88;;
74469;SDS011;62918;55.706;37.816;2022-12-07T02:06:12;7.90;;;3.22;;
74469;SDS011;62918;55.706;37.816;2022-12-07T02:06:49;5.75;;;3.03;;
74469;SDS011;62918;55.706;37.816;2022-12-07T02:07:20;8.85;;;3.17;;
74469;SDS011;62918;55.706;37.816;2022-12-07T02:07:53;6.47;;;3.05;;
74469;SDS011;62918;55.706;37.816;2022-12-07T02:08:25;6.57;;;3.28;;
74469;SDS011;62918;55.706;37.816;2022-12-07T02:08:56;8.02;;;3.05;;
74469;SDS011;62918;55.706;37.816;2022-12-07T02:09:27;7.70;;;3.20;;
74469;SDS011;62918;55.706;37.816;2022-12-07T02:09:57;9.15;;;4.03;;
74469;SDS011;62918;55.706;37.816;2022-12-07T02:10:44;9.20;;;3.25;;
74469;SDS011;62918;55.706;37.816;2022-12-07T02:11:15;9.18;;;3.78;;
74469;SDS011;62918;55.706;37.816;2022-12-07T02:11:46;7.63;;;3.75;;
74469;SDS011;62918;55.706;37.816;2022-12-07T02:12:17;8.95;;;3.75;;
74469;SDS011;62918;55.706;37.816;2022-12-07T02:13:26;9.68;;;3.55;;
74469;SDS011;62918;55.706;37.816;2022-12-07T02:14:00;7.30;;;3.00;;
74469;SDS011;62918;55.706;37.816;2022-12-07T02:14:31;8.40;;;3.35;;
74469;SDS011;62918;55.706;37.816;2022-12-07T02:15:02;7.18;;;3.70;;
74469;SDS011;62918;55.706;37.816;2022-12-07T02:17:11;9.45;;;3.22;;
74469;SDS011;62918;55.706;37.816;2022-12-07T02:18:09;6.80;;;3.17;;
74469;SDS011;62918;55.706;37.816;2022-12-07T02:26:13;9.98;;;3.20;;
74469;SDS011;62918;55.706;37.816;2022-12-07T02:29:33;8.02;;;3.10;;
74469;SDS011;62918;55.706;37.816;2022-12-07T02:30:17;8.85;;;3.33;;
74469;SDS011;62918;55.706;37.816;2022-12-07T02:30:50;9.80;;;3.38;;
74469;SDS011;62918;55.706;37.816;2022-12-07T02:31:24;8.18;;;3.53;;
74469;SDS011;62918;55.706;37.816;2022-12-07T02:32:07;8.20;;;2.85;;
74469;SDS011;62918;55.706;37.816;2022-12-07T02:32:51;7.45;;;3.60;;
74469;SDS011;62918;55.706;37.816;2022-12-07T02:33:36;7.65;;;3.63;;
74469;SDS011;62918;55.706;37.816;2022-12-07T02:34:31;11.90;;;3.47;;
74469;SDS011;62918;55.706;37.816;2022-12-07T02:35:12;8.55;;;3.45;;
74469;SDS011;62918;55.706;37.816;2022-12-07T02:35:58;7.20;;;3.25;;
74469;SDS011;62918;55.706;37.816;2022-12-07T02:36:38;11.68;;;4.07;;
74469;SDS011;62918;55.706;37.816;2022-12-07T02:37:17;9.98;;;3.95;;
74469;SDS011;62918;55.706;37.816;2022-12-07T02:38:55;8.27;;;3.25;;
74469;SDS011;62918;55.706;37.816;2022-12-07T02:39:41;7.95;;;3.50;;
74469;SDS011;62918;55.706;37.816;2022-12-07T02:40:37;8.88;;;3.92;;
74469;SDS011;62918;55.706;37.816;2022-12-07T02:41:22;11.63;;;4.40;;
74469;SDS011;62918;55.706;37.816;2022-12-07T02:41:55;8.85;;;3.75;;
74469;SDS011;62918;55.706;37.816;2022-12-07T02:42:32;12.10;;;4.50;;
74469;SDS011;62918;55.706;37.816;2022-12-07T02:43:08;9.80;;;4.03;;
74469;SDS011;62918;55.706;37.816;2022-12-07T02:43:48;12.57;;;4.63;;
74469;SDS011;62918;55.706;37.816;2022-12-07T02:44:24;12.25;;;3.95;;
74469;SDS011;62918;55.706;37.816;2022-12-07T02:44:58;10.93;;;4.07;;
74469;SDS011;62918;55.706;37.816;2022-12-07T02:45:30;8.43;;;4.63;;
74469;SDS011;62918;55.706;37.816;2022-12-07T02:46:10;11.57;;;4.95;;
74469;SDS011;62918;55.706;37.816;2022-12-07T02:47:05;8.93;;;4.40;;
74469;SDS011;62918;55.706;37.816;2022-12-07T02:47:39;9.35;;;4.00;;
74469;SDS011;62918;55.706;37.816;2022-12-07T02:48:12;9.23;;;5.03;;
74469;SDS011;62918;55.706;37.816;2022-12-07T02:48:45;9.55;;;4.47;;
74469;SDS011;62918;55.706;37.816;2022-12-07T02:49:17;8.63;;;4.05;;
74469;SDS011;62918;55.706;37.816;2022-12-07T02:49:49;10.45;;;3.95;;
74469;SDS011;62918;55.706;37.816;2022-12-07T02:50:20;10.27;;;4.28;;
74469;SDS011;62918;55.706;37.816;2022-12-07T02:50:52;9.48;;;4.60;;
74469;SDS011;62918;55.706;37.816;2022-12-07T02:51:24;11.77;;;4.25;;
74469;SDS011;62918;55.706;37.816;2022-12-07T02:51:54;9.13;;;4.32;;
74469;SDS011;62918;55.706;37.816;2022-12-07T02:52:25;9.57;;;3.80;;
74469;SDS011;62918;55.706;37.816;2022-12-07T02:52:55;9.95;;;4.40;;
74469;SDS011;62918;55.706;37.816;2022-12-07T02:53:33;10.35;;;4.10;;
74469;SDS011;62918;55.706;37.816;2022-12-07T02:54:08;11.10;;;4.63;;
74469;SDS011;62918;55.706;37.816;2022-12-07T02:54:44;11.63;;;4.20;;
74469;SDS011;62918;55.706;37.816;2022-12-07T02:55:15;10.20;;;4.70;;
74469;SDS011;62918;55.706;37.816;2022-12-07T02:55:49;9.43;;;4.30;;
74469;SDS011;62918;55.706;37.816;2022-12-07T02:58:31;11.27;;;4.18;;
74469;SDS011;62918;55.706;37.816;2022-12-07T03:00:05;9.70;;;3.95;;
74469;SDS011;62918;55.706;37.816;2022-12-07T03:00:44;9.23;;;3.58;;
74469;SDS011;62918;55.706;37.816;2022-12-07T03:01:30;11.82;;;4.15;;
74469;SDS011;62918;55.706;37.816;2022-12-07T03:02:17;8.60;;;3.50;;
74469;SDS011;62918;55.706;37.816;2022-12-07T03:03:50;9.88;;;4.03;;
74469;SDS011;62918;55.706;37.816;2022-12-07T03:07:04;8.38;;;3.63;;
74469;SDS011;62918;55.706;37.816;2022-12-07T03:08:40;8.25;;;3.80;;
74469;SDS011;62918;55.706;37.816;2022-12-07T03:09:20;9.88;;;4.28;;
74469;SDS011;62918;55.706;37.816;2022-12-07T03:10:09;9.60;;;3.72;;
74469;SDS011;62918;55.706;37.816;2022-12-07T03:11:55;7.47;;;4.10;;
74469;SDS011;62918;55.706;37.816;2022-12-07T03:12:46;10.52;;;3.80;;
74469;SDS011;62918;55.706;37.816;2022-12-07T03:13:33;10.00;;;3.83;;
74469;SDS011;62918;55.706;37.816;2022-12-07T03:14:55;10.55;;;3.78;;
74469;SDS011;62918;55.706;37.816;2022-12-07T03:15:06;9.40;;;3.47;;
74469;SDS011;62918;55.706;37.816;2022-12-07T03:17:05;11.25;;;4.18;;
74469;SDS011;62918;55.706;37.816;2022-12-07T03:17:44;7.72;;;3.25;;
74469;SDS011;62918;55.706;37.816;2022-12-07T03:18:18;9.80;;;4.30;;
74469;SDS011;62918;55.706;37.816;2022-12-07T03:18:53;10.85;;;4.35;;
74469;SDS011;62918;55.706;37.816;2022-12-07T03:19:28;8.57;;;4.78;;
74469;SDS011;62918;55.706;37.816;2022-12-07T03:20:04;10.13;;;4.55;;
74469;SDS011;62918;55.706;37.816;2022-12-07T03:20:39;10.18;;;4.05;;
74469;SDS011;62918;55.706;37.816;2022-12-07T03:21:13;10.07;;;4.53;;
74469;SDS011;62918;55.706;37.816;2022-12-07T03:21:55;10.68;;;5.32;;
74469;SDS011;62918;55.706;37.816;2022-12-07T03:22:30;11.02;;;3.95;;
74469;SDS011;62918;55.706;37.816;2022-12-07T03:23:04;11.63;;;4.85;;
74469;SDS011;62918;55.706;37.816;2022-12-07T03:23:40;11.10;;;4.13;;
74469;SDS011;62918;55.706;37.816;2022-12-07T03:24:17;10.02;;;4.30;;
74469;SDS011;62918;55.706;37.816;2022-12-07T03:24:52;7.95;;;3.78;;
74469;SDS011;62918;55.706;37.816;2022-12-07T03:25:27;10.07;;;4.68;;
74469;SDS011;62918;55.706;37.816;2022-12-07T03:25:59;11.23;;;4.45;;
74469;SDS011;62918;55.706;37.816;2022-12-07T03:26:31;10.20;;;4.50;;
74469;SDS011;62918;55.706;37.816;2022-12-07T03:27:13;10.18;;;4.65;;
74469;SDS011;62918;55.706;37.816;2022-12-07T03:27:53;8.45;;;4.68;;
74469;SDS011;62918;55.706;37.816;2022-12-07T03:28:29;11.60;;;4.57;;
74469;SDS011;62918;55.706;37.816;2022-12-07T03:29:07;11.38;;;4.40;;
74469;SDS011;62918;55.706;37.816;2022-12-07T03:29:43;10.88;;;4.90;;
74469;SDS011;62918;55.706;37.816;2022-12-07T03:30:21;9.35;;;4.25;;
74469;SDS011;62918;55.706;37.816;2022-12-07T03:31:51;10.57;;;4.55;;
74469;SDS011;62918;55.706;37.816;2022-12-07T03:33:07;8.73;;;4.32;;
74469;SDS011;62918;55.706;37.816;2022-12-07T03:34:00;8.88;;;4.28;;
74469;SDS011;62918;55.706;37.816;2022-12-07T03:34:40;10.90;;;3.97;;
74469;SDS011;62918;55.706;37.816;2022-12-07T03:35:21;11.30;;;4.32;;
74469;SDS011;62918;55.706;37.816;2022-12-07T03:36:38;11.90;;;4.28;;
74469;SDS011;62918;55.706;37.816;2022-12-07T03:37:15;11.88;;;5.47;;
74469;SDS011;62918;55.706;37.816;2022-12-07T03:37:52;11.27;;;5.10;;
74469;SDS011;62918;55.706;37.816;2022-12-07T03:38:29;10.93;;;4.57;;
74469;SDS011;62918;55.706;37.816;2022-12-07T03:39:16;10.35;;;4.93;;
74469;SDS011;62918;55.706;37.816;2022-12-07T03:39:54;9.27;;;4.55;;
74469;SDS011;62918;55.706;37.816;2022-12-07T03:40:35;10.77;;;4.60;;
74469;SDS011;62918;55.706;37.816;2022-12-07T03:41:18;13.40;;;5.28;;
74469;SDS011;62918;55.706;37.816;2022-12-07T03:41:57;10.50;;;4.53;;
74469;SDS011;62918;55.706;37.816;2022-12-07T03:42:31;10.93;;;4.82;;
74469;SDS011;62918;55.706;37.816;2022-12-07T03:43:04;12.68;;;5.25;;
74469;SDS011;62918;55.706;37.816;2022-12-07T03:43:35;11.93;;;5.13;;
74469;SDS011;62918;55.706;37.816;2022-12-07T03:44:07;10.50;;;5.03;;
74469;SDS011;62918;55.706;37.816;2022-12-07T03:44:39;12.38;;;5.20;;
74469;SDS011;62918;55.706;37.816;2022-12-07T03:45:11;12.25;;;5.85;;
74469;SDS011;62918;55.706;37.816;2022-12-07T03:45:43;12.57;;;4.78;;
74469;SDS011;62918;55.706;37.816;2022-12-07T03:46:42;12.73;;;4.78;;
74469;SDS011;62918;55.706;37.816;2022-12-07T03:47:53;12.60;;;5.60;;
74469;SDS011;62918;55.706;37.816;2022-12-07T03:48:40;10.00;;;4.68;;
74469;SDS011;62918;55.706;37.816;2022-12-07T03:49:59;10.98;;;5.65;;
74469;SDS011;62918;55.706;37.816;2022-12-07T03:52:43;10.48;;;4.45;;